sim
Sign-in with your pilot id or email,
or register
Callsign
Passwort

Schedule Details

Flight Number: RYR2171 (2)
Departure: Bratislava M. R. Stefanik Airport (LZIB) at 14:40
Arrival: Thessaloniki International Airport (LGTS) at 16:30
Route: Ryanair Passenger Schedule. Enter filed route here before submitting Pirep.

Weather Information
Getting current METAR information for LZIB 280330Z 27005KT CAVOK 12/06 Q1025
Getting current METAR information for LGTS 280320Z 32010KT 9999 FEW030 15/10 Q1018 NOSIG

Schedule Frequency

Route Map